createdAt,value
2019-05-18T05:51:04.536Z,33.15
2019-05-18T05:53:35.838Z,32.15
2019-05-18T05:56:06.929Z,34.65
2019-05-18T06:01:53.397Z,31.55
2019-05-18T06:04:24.429Z,29.63
2019-05-18T06:06:55.472Z,31.77
2019-05-18T06:09:26.468Z,30.23
2019-05-18T06:11:57.556Z,32.85
2019-05-18T06:14:28.576Z,29.77
2019-05-18T06:16:59.548Z,29.10
2019-05-18T06:19:30.498Z,28.10
2019-05-18T06:22:01.532Z,26.05
2019-05-18T06:24:32.558Z,48.35
2019-05-18T06:27:04.587Z,31.65
2019-05-18T06:29:35.678Z,33.15
2019-05-18T06:32:06.765Z,31.85
2019-05-18T06:34:37.785Z,28.77
2019-05-18T06:37:08.817Z,25.70
2019-05-18T06:39:40.855Z,28.27
2019-05-18T06:42:11.886Z,27.62
2019-05-18T06:44:42.828Z,25.75
2019-05-18T06:47:13.859Z,23.22
2019-05-18T06:49:44.886Z,24.57
2019-05-18T06:52:15.929Z,23.45
2019-05-18T06:54:46.959Z,23.80
2019-05-18T06:57:17.977Z,24.35
2019-05-18T06:59:49.517Z,25.45
2019-05-18T07:02:20.532Z,25.75
2019-05-18T07:04:51.555Z,23.75
2019-05-18T07:07:22.569Z,24.23
2019-05-18T07:09:53.533Z,24.07
2019-05-18T07:12:24.618Z,24.30
2019-05-18T07:14:55.662Z,45.52
2019-05-18T07:17:26.749Z,24.55
2019-05-18T07:19:57.768Z,24.00
2019-05-18T07:22:28.789Z,24.25
2019-05-18T07:24:59.879Z,23.07
2019-05-18T07:27:30.921Z,26.30
2019-05-18T07:30:01.954Z,25.65
2019-05-18T07:32:32.948Z,27.90
2019-05-18T07:35:04.167Z,25.95
2019-05-18T07:37:35.910Z,22.20
2019-05-18T07:40:08.303Z,24.37
2019-05-18T07:42:39.731Z,23.57
2019-05-18T07:45:11.074Z,25.55
2019-05-18T07:47:42.101Z,24.85
2019-05-18T07:50:13.443Z,23.95
2019-05-18T07:52:44.535Z,23.70
2019-05-18T07:55:15.674Z,21.02
2019-05-18T07:57:47.410Z,22.65
2019-05-18T08:00:18.604Z,22.05
2019-05-18T08:02:49.804Z,21.45
2019-05-18T08:05:21.610Z,23.20
2019-05-18T08:07:52.635Z,20.52
2019-05-18T08:10:26.575Z,22.42
2019-05-18T08:12:57.599Z,22.90
2019-05-18T08:15:28.664Z,20.95
2019-05-18T08:17:58.647Z,19.90
2019-05-18T08:20:29.411Z,22.82
2019-05-18T08:23:00.441Z,17.95
2019-05-18T08:25:31.412Z,18.32
2019-05-18T08:28:02.506Z,20.17
2019-05-18T08:30:33.533Z,20.30
2019-05-18T08:33:04.777Z,18.82
2019-05-18T08:35:35.766Z,18.50
2019-05-18T08:38:06.811Z,18.65
2019-05-18T08:40:37.832Z,16.95
2019-05-18T08:43:08.849Z,18.62
2019-05-18T08:45:40.859Z,26.45
2019-05-18T08:48:11.909Z,18.02
2019-05-18T08:50:43.048Z,16.00
2019-05-18T08:53:13.995Z,18.15
2019-05-18T08:55:45.023Z,23.73
2019-05-18T08:58:16.123Z,28.32
2019-05-18T09:00:47.154Z,17.32
2019-05-18T09:03:18.215Z,16.90
2019-05-18T09:05:49.269Z,15.68
2019-05-18T09:08:20.289Z,15.65
2019-05-18T09:10:51.365Z,15.05
2019-05-18T09:13:22.375Z,16.35
2019-05-18T09:15:53.329Z,14.50
2019-05-18T09:18:24.358Z,14.07
2019-05-18T09:20:55.482Z,16.25
2019-05-18T09:23:26.508Z,14.23
2019-05-18T09:25:57.605Z,13.98
2019-05-18T09:28:28.642Z,14.70
2019-05-18T09:30:59.686Z,14.40
2019-05-18T09:33:30.731Z,17.77
2019-05-18T09:36:01.849Z,15.58
2019-05-18T09:38:33.526Z,12.37
2019-05-18T09:41:04.745Z,28.40
2019-05-18T09:43:35.886Z,21.35
2019-05-18T09:46:06.994Z,16.97
2019-05-18T09:48:38.017Z,42.98
2019-05-18T09:51:09.046Z,14.38
2019-05-18T09:53:50.705Z,13.78
2019-05-18T09:56:12.898Z,14.23
2019-05-18T09:58:43.907Z,13.53
2019-05-18T10:01:14.973Z,12.45
2019-05-18T10:03:45.972Z,15.80
2019-05-18T10:06:17.072Z,12.15
2019-05-18T10:08:48.148Z,11.93
2019-05-18T10:11:19.170Z,11.20
2019-05-18T10:13:50.181Z,12.85
2019-05-18T10:16:21.322Z,12.05
2019-05-18T10:18:52.395Z,13.90
2019-05-18T10:21:23.496Z,12.53
2019-05-18T10:23:54.723Z,11.57
2019-05-18T10:26:25.752Z,10.93
2019-05-18T10:28:56.777Z,16.80
2019-05-18T10:31:27.781Z,13.43
2019-05-18T10:33:58.852Z,12.43
2019-05-18T10:36:29.936Z,12.82
2019-05-18T10:39:00.989Z,14.58
2019-05-18T10:41:33.343Z,13.53
2019-05-18T10:44:04.453Z,12.75
2019-05-18T10:46:35.555Z,17.57
2019-05-18T10:49:06.645Z,16.37
2019-05-18T10:51:37.743Z,16.12
2019-05-18T10:54:08.768Z,18.98
2019-05-18T10:56:39.792Z,20.23
2019-05-18T10:59:12.011Z,13.72
2019-05-18T11:01:43.995Z,16.60
2019-05-18T11:04:15.332Z,15.70
2019-05-18T11:06:46.353Z,16.97
2019-05-18T11:09:17.385Z,14.75
2019-05-18T11:11:48.541Z,16.10
2019-05-18T11:14:19.685Z,17.12
2019-05-18T11:16:50.702Z,15.18
2019-05-18T11:19:22.500Z,15.95
2019-05-18T11:21:53.644Z,14.38
2019-05-18T11:24:24.687Z,17.95
2019-05-18T11:26:55.831Z,15.55
2019-05-18T11:29:26.930Z,16.52
2019-05-18T11:31:57.928Z,13.98
2019-05-18T11:34:28.936Z,13.93
2019-05-18T11:37:03.106Z,14.93
2019-05-18T11:39:32.771Z,13.62
2019-05-18T11:42:03.817Z,13.45
2019-05-18T11:44:34.836Z,14.00
2019-05-18T11:47:05.793Z,11.45
2019-05-18T11:49:36.818Z,11.35
2019-05-18T11:52:07.897Z,12.30
2019-05-18T11:54:38.924Z,10.80
2019-05-18T11:57:09.940Z,9.88
2019-05-18T11:59:40.982Z,10.60
2019-05-18T12:02:12.057Z,8.25
2019-05-18T12:04:43.084Z,8.73
2019-05-18T12:07:14.110Z,9.85
2019-05-18T12:09:45.056Z,10.75
2019-05-18T12:12:16.178Z,9.75
2019-05-18T12:14:47.210Z,7.72
2019-05-18T12:17:18.086Z,9.28
2019-05-18T12:19:49.126Z,7.72
2019-05-18T12:22:20.079Z,8.50
2019-05-18T12:24:51.160Z,6.80
2019-05-18T12:27:22.176Z,7.83
2019-05-18T12:29:53.186Z,8.48
2019-05-18T12:32:24.132Z,6.25
2019-05-18T12:34:55.210Z,9.60
2019-05-18T12:37:26.229Z,7.45
2019-05-18T12:39:57.228Z,9.58
2019-05-18T12:42:28.259Z,5.55
2019-05-18T12:44:59.273Z,7.22
2019-05-18T12:47:30.291Z,6.12
2019-05-18T12:50:02.384Z,6.33
2019-05-18T12:52:33.456Z,6.80
2019-05-18T12:55:06.676Z,7.65
2019-05-18T12:57:37.683Z,6.92
2019-05-18T13:00:13.876Z,7.12
2019-05-18T13:02:45.878Z,5.87
2019-05-18T13:05:17.094Z,5.25
2019-05-18T13:07:48.179Z,8.88
2019-05-18T13:10:19.796Z,8.85
2019-05-18T13:12:50.794Z,7.40
2019-05-18T13:15:22.418Z,6.53
2019-05-18T13:17:53.430Z,6.33
2019-05-18T13:20:24.436Z,8.73
2019-05-18T13:22:55.443Z,5.83
2019-05-18T13:25:26.373Z,6.95
2019-05-18T13:27:57.376Z,7.87
2019-05-18T13:30:28.454Z,5.25
2019-05-18T13:32:59.466Z,5.55
2019-05-18T13:35:30.477Z,7.58
2019-05-18T13:38:01.494Z,5.25
2019-05-18T13:40:32.505Z,5.90
2019-05-18T13:43:03.548Z,4.58
2019-05-18T13:45:34.547Z,5.80
2019-05-18T13:48:05.476Z,5.15
2019-05-18T13:50:36.537Z,6.28
2019-05-18T13:53:07.562Z,4.75
2019-05-18T13:55:38.563Z,5.20
2019-05-18T13:58:09.688Z,5.37
2019-05-18T14:00:40.763Z,4.33
2019-05-18T14:03:11.844Z,5.40
2019-05-18T14:05:42.854Z,5.17
2019-05-18T14:08:15.659Z,4.30
2019-05-18T14:10:46.898Z,6.50
2019-05-18T14:13:18.082Z,5.20
2019-05-18T14:15:49.183Z,5.15
2019-05-18T14:18:20.186Z,4.37
2019-05-18T14:20:51.336Z,4.85
2019-05-18T14:23:22.399Z,4.60
2019-05-18T14:25:53.489Z,5.87
2019-05-18T14:28:24.558Z,4.62
2019-05-18T14:30:55.757Z,4.97
2019-05-18T14:33:26.768Z,6.47
2019-05-18T14:35:57.839Z,5.45
2019-05-18T14:38:28.927Z,5.97
2019-05-18T14:40:59.995Z,5.85
2019-05-18T14:43:31.003Z,5.42
2019-05-18T14:46:02.110Z,9.93
2019-05-18T14:48:33.186Z,6.17
2019-05-18T14:51:04.095Z,5.92
2019-05-18T14:53:35.111Z,5.28
2019-05-18T14:56:06.289Z,4.47
2019-05-18T14:58:37.311Z,5.95
2019-05-18T15:01:08.313Z,6.10
2019-05-18T15:03:39.331Z,4.67
2019-05-18T15:06:10.280Z,4.78
2019-05-18T15:08:41.191Z,4.45
2019-05-18T15:11:12.119Z,5.30
2019-05-18T15:13:43.318Z,5.80
2019-05-18T15:16:14.347Z,8.30
2019-05-18T15:18:45.356Z,5.30
2019-05-18T15:21:16.434Z,5.72
2019-05-18T15:23:47.375Z,6.15
2019-05-18T15:26:18.456Z,5.60
2019-05-18T15:28:49.457Z,7.30
2019-05-18T15:31:23.693Z,6.20
2019-05-18T15:33:53.203Z,5.50
2019-05-18T15:36:24.296Z,5.45
2019-05-18T15:38:55.380Z,5.47
2019-05-18T15:41:26.294Z,5.37
2019-05-18T15:43:57.308Z,6.10
2019-05-18T15:46:28.569Z,5.08
2019-05-18T15:48:59.645Z,4.97
2019-05-18T15:51:30.782Z,4.97
2019-05-18T15:54:01.799Z,6.47
2019-05-18T15:56:32.832Z,5.17
2019-05-18T15:59:03.848Z,6.55
2019-05-18T16:01:34.984Z,5.50
2019-05-18T16:04:06.713Z,4.72
2019-05-18T16:06:37.850Z,6.10
2019-05-18T16:09:09.030Z,5.40
2019-05-18T16:11:40.040Z,7.90
2019-05-18T16:14:11.109Z,6.47
2019-05-18T16:16:42.140Z,5.45
2019-05-18T16:19:13.144Z,4.95
2019-05-18T16:21:44.160Z,5.75
2019-05-18T16:24:15.191Z,5.08
2019-05-18T16:26:46.147Z,5.20
2019-05-18T16:29:17.165Z,6.62
2019-05-18T16:31:48.182Z,5.78
2019-05-18T16:34:19.267Z,5.33
2019-05-18T16:36:50.302Z,4.62
2019-05-18T16:39:21.386Z,6.08
2019-05-18T16:41:53.392Z,4.40
2019-05-18T16:44:24.503Z,6.22
2019-05-18T16:46:55.589Z,5.75
2019-05-18T16:49:26.694Z,7.60
2019-05-18T16:51:57.719Z,5.15
2019-05-18T16:54:28.758Z,7.08
2019-05-18T16:56:59.803Z,5.62
2019-05-18T16:59:30.889Z,4.87
2019-05-18T17:02:01.926Z,5.37
2019-05-18T17:04:33.033Z,5.12
2019-05-18T17:07:04.122Z,5.33
2019-05-18T17:09:35.221Z,6.65
2019-05-18T17:12:06.226Z,6.15
2019-05-18T17:14:37.305Z,5.28
2019-05-18T17:17:08.317Z,5.33
2019-05-18T17:19:39.316Z,5.67
2019-05-18T17:22:10.337Z,5.20
2019-05-18T17:24:41.357Z,6.12
2019-05-18T17:27:12.442Z,7.05
2019-05-18T17:29:43.554Z,6.10
2019-05-18T17:32:15.688Z,5.40
2019-05-18T17:34:46.772Z,6.60
2019-05-18T17:37:17.855Z,5.33
2019-05-18T17:39:48.973Z,5.95
2019-05-18T17:42:20.062Z,8.00
2019-05-18T17:44:51.137Z,6.45
2019-05-18T17:47:22.189Z,7.62
2019-05-18T17:49:53.191Z,6.70
2019-05-18T17:52:24.386Z,7.08
2019-05-18T17:54:57.354Z,5.78
2019-05-18T17:57:28.201Z,6.45
2019-05-18T17:59:59.286Z,7.08
2019-05-18T18:02:31.472Z,8.70
2019-05-18T18:05:02.558Z,8.90
2019-05-18T18:07:33.558Z,10.90
2019-05-18T18:10:05.792Z,10.48
2019-05-18T18:12:36.899Z,13.68
2019-05-18T18:15:08.988Z,13.05
2019-05-18T18:17:40.383Z,12.60
2019-05-18T18:20:11.573Z,15.55
2019-05-18T18:22:42.652Z,14.78
2019-05-18T18:25:13.875Z,13.43
2019-05-18T18:27:44.902Z,14.30
2019-05-18T18:30:16.719Z,17.98
2019-05-18T18:32:47.743Z,16.48
2019-05-18T18:35:18.773Z,17.12
2019-05-18T18:37:49.871Z,17.65
2019-05-18T18:40:20.963Z,16.67
2019-05-18T18:42:52.088Z,11.50
2019-05-18T18:45:23.123Z,15.75
2019-05-18T18:47:54.135Z,22.58
2019-05-18T18:50:25.469Z,17.62
2019-05-18T18:52:56.581Z,18.65
2019-05-18T18:55:27.703Z,14.98
2019-05-18T18:57:58.748Z,15.32
2019-05-18T19:00:29.663Z,17.65
2019-05-18T19:03:00.779Z,16.55
2019-05-18T19:05:31.813Z,26.73
2019-05-18T19:08:02.797Z,32.50
2019-05-18T19:10:33.802Z,36.53
2019-05-18T19:13:04.863Z,31.95
2019-05-18T19:15:35.895Z,27.52
2019-05-18T19:18:06.963Z,34.25
2019-05-18T19:20:38.071Z,43.23
2019-05-18T19:23:09.025Z,30.10
2019-05-18T19:25:40.061Z,21.40
2019-05-18T19:28:11.151Z,18.50
2019-05-18T19:30:42.185Z,26.95
2019-05-18T19:33:13.220Z,29.12
2019-05-18T19:35:44.235Z,34.90
2019-05-18T19:38:15.261Z,30.62
2019-05-18T19:40:46.562Z,43.60
2019-05-18T19:43:17.691Z,35.03
2019-05-18T19:45:48.714Z,27.67
2019-05-18T19:48:19.742Z,20.55
2019-05-18T19:50:50.839Z,20.75
2019-05-18T19:53:21.899Z,20.92
2019-05-18T19:55:52.926Z,19.77
2019-05-18T19:58:23.976Z,23.27
2019-05-18T20:00:55.082Z,22.42
2019-05-18T20:03:26.100Z,24.65
2019-05-18T20:05:57.200Z,24.90
2019-05-18T20:08:28.312Z,22.98
2019-05-18T20:10:59.360Z,27.32
2019-05-18T20:13:30.381Z,24.98
2019-05-18T20:16:01.449Z,24.60
2019-05-18T20:18:33.623Z,24.98
2019-05-18T20:21:04.637Z,23.80
2019-05-18T20:23:35.807Z,28.47
2019-05-18T20:26:06.841Z,36.10
2019-05-18T20:28:37.925Z,32.10
2019-05-18T20:31:09.055Z,32.58
2019-05-18T20:33:40.146Z,32.70
2019-05-18T20:36:11.251Z,36.08
2019-05-18T20:38:42.286Z,39.70
2019-05-18T20:41:13.389Z,41.18
2019-05-18T20:43:44.579Z,28.75
2019-05-18T20:46:15.664Z,31.42
2019-05-18T20:48:46.978Z,33.10
2019-05-18T20:51:18.078Z,32.53
2019-05-18T20:53:49.031Z,38.98
2019-05-18T20:56:20.053Z,37.28
2019-05-18T20:58:51.140Z,38.70
2019-05-18T21:01:22.241Z,34.08
2019-05-18T21:03:53.264Z,27.13
2019-05-18T21:06:24.301Z,28.55
2019-05-18T21:08:55.327Z,27.17
2019-05-18T21:11:26.339Z,19.27
2019-05-18T21:13:57.877Z,20.72
2019-05-18T21:16:28.974Z,22.07
2019-05-18T21:18:59.996Z,18.07
2019-05-18T21:21:31.026Z,19.60
2019-05-18T21:24:02.064Z,21.95
2019-05-18T21:26:33.074Z,19.50
2019-05-18T21:29:04.099Z,19.37
2019-05-18T21:31:35.155Z,21.10
2019-05-18T21:34:06.240Z,18.10
2019-05-18T21:36:37.448Z,16.80
2019-05-18T21:39:08.498Z,19.35
2019-05-18T21:41:39.597Z,20.95
2019-05-18T21:44:10.640Z,16.05
2019-05-18T21:46:41.722Z,17.87
2019-05-18T21:49:12.767Z,21.77
2019-05-18T21:51:43.792Z,21.33
2019-05-18T21:54:14.818Z,18.17
2019-05-18T21:56:45.835Z,20.32
2019-05-18T21:59:16.867Z,26.17
2019-05-18T22:01:49.112Z,24.20
2019-05-18T22:04:20.140Z,30.15
2019-05-18T22:06:51.161Z,26.30
2019-05-18T22:09:22.279Z,24.80
2019-05-18T22:11:53.324Z,23.57
2019-05-18T22:14:24.351Z,25.30
2019-05-18T22:16:55.445Z,19.20
2019-05-18T22:19:26.470Z,20.55
2019-05-18T22:21:57.498Z,19.75
2019-05-18T22:24:28.571Z,23.20
2019-05-18T22:27:00.595Z,21.85
2019-05-18T22:29:31.609Z,20.23
2019-05-18T22:32:02.709Z,22.07
2019-05-18T22:34:33.814Z,21.90
2019-05-18T22:37:04.758Z,21.05
2019-05-18T22:39:37.467Z,20.12
2019-05-18T22:42:08.488Z,19.50
2019-05-18T22:44:39.496Z,20.85
2019-05-18T22:47:10.589Z,22.05
2019-05-18T22:49:41.609Z,20.80
2019-05-18T22:52:12.643Z,20.32
2019-05-18T22:54:43.743Z,20.17
2019-05-18T22:57:14.695Z,22.30
2019-05-18T22:59:45.703Z,18.32
2019-05-18T23:02:16.734Z,25.20
2019-05-18T23:04:49.054Z,20.20
2019-05-18T23:07:20.103Z,21.05
2019-05-18T23:09:51.031Z,20.23
2019-05-18T23:12:22.153Z,20.43
2019-05-18T23:14:53.239Z,22.32
2019-05-18T23:17:24.361Z,22.58
2019-05-18T23:19:55.360Z,23.85
2019-05-18T23:22:26.576Z,24.12
2019-05-18T23:24:58.485Z,22.80
2019-05-18T23:27:29.507Z,27.55
2019-05-18T23:30:00.536Z,28.10
2019-05-18T23:32:32.834Z,25.48
2019-05-18T23:35:04.251Z,21.93
2019-05-18T23:37:35.273Z,23.52
2019-05-18T23:40:07.106Z,22.75
2019-05-18T23:42:38.126Z,24.35
2019-05-18T23:45:09.247Z,26.35
2019-05-18T23:47:40.290Z,23.52
2019-05-18T23:50:11.501Z,24.12
2019-05-18T23:52:42.588Z,22.48
2019-05-18T23:55:14.203Z,23.77
2019-05-18T23:57:45.242Z,24.37
